Terminal Aerodrome Forecast
Issued by NWS

Home | Current Version | Previous Version | Graphics & Text | Print | Product List | Glossary On
Versions: 1 2 3 4 5 6 7 8 9 10 11 12 13 14 15 16 17
000
FTUS43 KFGF 111700 AAC
TAFBJI
TAF AMD
KBJI 111704Z 1117/1212 17004KT P6SM OVC025
      TEMPO 1117/1118 BKN015
     FM111800 25010KT P6SM BKN080
     FM120100 30004KT P6SM SCT250=

USA.gov is the U.S. government's official web portal to all federal, state and local government web resources and services.